createdAt,value
2019-06-15T00:03:09.466Z,13
2019-06-15T00:13:14.369Z,15
2019-06-15T00:18:16.788Z,12
2019-06-15T00:23:19.221Z,13
2019-06-15T00:28:21.664Z,18
2019-06-15T00:33:24.193Z,14
2019-06-15T00:38:26.710Z,16
2019-06-15T00:48:31.469Z,14
2019-06-15T00:53:33.869Z,15
2019-06-15T00:58:36.321Z,13
2019-06-15T01:03:38.781Z,16
2019-06-15T01:08:41.272Z,17
2019-06-15T01:13:43.682Z,16
2019-06-15T01:18:46.079Z,16
2019-06-15T01:23:48.528Z,14
2019-06-15T01:28:51.048Z,15
2019-06-15T01:33:53.433Z,14
2019-06-15T01:38:55.855Z,21
2019-06-15T01:43:58.285Z,17
2019-06-15T01:49:00.741Z,20
2019-06-15T01:54:03.382Z,16
2019-06-15T01:59:05.648Z,16
2019-06-15T02:04:08.052Z,18
2019-06-15T02:09:10.557Z,16
2019-06-15T02:14:12.960Z,16
2019-06-15T02:19:15.370Z,17
2019-06-15T02:24:17.811Z,18
2019-06-15T02:29:20.295Z,18
2019-06-15T02:34:22.732Z,19
2019-06-15T02:39:25.152Z,20
2019-06-15T02:44:27.606Z,18
2019-06-15T02:49:30.020Z,17
2019-06-15T02:54:32.587Z,19
2019-06-15T02:59:34.903Z,19
2019-06-15T03:04:37.447Z,19
2019-06-15T03:09:39.811Z,19
2019-06-15T03:14:42.334Z,19
2019-06-15T03:19:44.730Z,20
2019-06-15T03:24:47.158Z,21
2019-06-15T03:29:49.577Z,20
2019-06-15T03:34:52.008Z,19
2019-06-15T03:39:54.499Z,20
2019-06-15T03:44:56.904Z,20
2019-06-15T03:55:01.850Z,21
2019-06-15T04:00:04.213Z,21
2019-06-15T04:05:06.682Z,22
2019-06-15T04:10:09.105Z,21
2019-06-15T04:15:11.529Z,21
2019-06-15T04:20:14.110Z,21
2019-06-15T04:25:16.439Z,21
2019-06-15T04:30:18.882Z,21
2019-06-15T04:35:21.287Z,21
2019-06-15T04:45:26.203Z,23
2019-06-15T04:50:28.656Z,20
2019-06-15T04:55:31.194Z,21
2019-06-15T05:00:34.208Z,22
2019-06-15T05:05:36.017Z,21
2019-06-15T05:10:38.390Z,20
2019-06-15T05:15:40.826Z,21
2019-06-15T05:20:43.274Z,24
2019-06-15T05:25:45.709Z,23
2019-06-15T05:30:48.231Z,22
2019-06-15T05:35:50.601Z,27
2019-06-15T05:40:53.048Z,24
2019-06-15T05:45:55.511Z,24
2019-06-15T05:50:58.646Z,24
2019-06-15T05:56:00.428Z,25
2019-06-15T06:01:02.927Z,26
2019-06-15T06:06:05.261Z,27
2019-06-15T06:11:07.921Z,29
2019-06-15T06:16:10.135Z,28
2019-06-15T06:21:12.593Z,30
2019-06-15T06:26:15.023Z,30
2019-06-15T06:31:17.464Z,31
2019-06-15T06:36:19.945Z,30
2019-06-15T06:41:22.447Z,29
2019-06-15T06:46:24.785Z,31
2019-06-15T06:51:27.365Z,30
2019-06-15T06:56:29.672Z,31
2019-06-15T07:01:32.247Z,31
2019-06-15T07:06:34.541Z,30
2019-06-15T07:11:37.191Z,31
2019-06-15T07:16:39.444Z,29
2019-06-15T07:21:41.951Z,29
2019-06-15T07:26:44.342Z,27
2019-06-15T07:31:46.811Z,26
2019-06-15T07:36:49.393Z,25
2019-06-15T07:46:54.228Z,25
2019-06-15T07:51:56.749Z,25
2019-06-15T07:56:58.964Z,23
2019-06-15T08:02:03.731Z,22
2019-06-15T08:07:03.850Z,25
2019-06-15T08:12:06.306Z,21
2019-06-15T08:17:08.798Z,21
2019-06-15T08:22:11.223Z,20
2019-06-15T08:27:13.624Z,24
2019-06-15T08:32:16.076Z,14
2019-06-15T08:37:18.576Z,15
2019-06-15T08:42:20.990Z,13
2019-06-15T08:47:23.409Z,12
2019-06-15T08:52:25.835Z,11
2019-06-15T09:02:30.707Z,13
2019-06-15T09:07:33.177Z,14
2019-06-15T09:12:35.623Z,10
2019-06-15T09:17:38.043Z,9
2019-06-15T09:22:40.498Z,11
2019-06-15T09:27:42.999Z,9
2019-06-15T09:37:47.795Z,12
2019-06-15T09:42:50.224Z,10
2019-06-15T09:47:52.689Z,15
2019-06-15T09:52:55.190Z,11
2019-06-15T09:57:57.729Z,11
2019-06-15T10:03:00.073Z,7
2019-06-15T10:08:02.480Z,13
2019-06-15T10:13:05.019Z,10
2019-06-15T10:18:07.475Z,24
2019-06-15T10:23:09.845Z,8
2019-06-15T10:28:12.282Z,9
2019-06-15T10:33:14.733Z,9
2019-06-15T10:38:17.131Z,16
2019-06-15T10:43:19.546Z,12
2019-06-15T10:48:21.994Z,19
2019-06-15T10:53:24.446Z,12
2019-06-15T10:58:26.961Z,18
2019-06-15T11:03:29.301Z,10
2019-06-15T11:08:31.824Z,9
2019-06-15T11:13:34.215Z,11
2019-06-15T11:18:36.679Z,17
2019-06-15T11:23:39.086Z,18
2019-06-15T11:28:41.577Z,17
2019-06-15T11:33:43.961Z,14
2019-06-15T11:38:46.419Z,15
2019-06-15T11:43:48.959Z,13
2019-06-15T11:48:51.353Z,29
2019-06-15T11:53:53.751Z,12
2019-06-15T11:58:56.179Z,14
2019-06-15T12:03:58.657Z,13
2019-06-15T12:09:01.083Z,8
2019-06-15T12:14:03.545Z,9
2019-06-15T12:19:05.993Z,8
2019-06-15T12:24:08.389Z,8
2019-06-15T12:29:10.854Z,8
2019-06-15T12:34:13.262Z,8
2019-06-15T12:39:16.045Z,7
2019-06-15T12:44:18.147Z,3
2019-06-15T12:49:20.641Z,7
2019-06-15T12:54:23.103Z,6
2019-06-15T12:59:25.519Z,5
2019-06-15T13:04:29.725Z,5
2019-06-15T13:09:30.392Z,4
2019-06-15T13:14:32.833Z,11
2019-06-15T13:19:35.267Z,3
2019-06-15T13:24:37.982Z,2
2019-06-15T13:29:40.240Z,3
2019-06-15T13:34:42.586Z,3
2019-06-15T13:39:45.023Z,3
2019-06-15T13:44:47.495Z,5
2019-06-15T13:49:49.913Z,3
2019-06-15T13:54:52.516Z,4
2019-06-15T13:59:54.810Z,4
2019-06-15T14:04:57.332Z,4
2019-06-15T14:09:59.724Z,6
2019-06-15T14:15:02.143Z,4
2019-06-15T14:20:04.582Z,3
2019-06-15T14:25:07.025Z,3
2019-06-15T14:30:09.570Z,5
2019-06-15T14:35:11.918Z,3
2019-06-15T14:40:14.358Z,7
2019-06-15T14:45:16.784Z,7
2019-06-15T14:50:19.232Z,7
2019-06-15T14:55:21.867Z,3
2019-06-15T15:00:24.194Z,6
2019-06-15T15:05:27.311Z,8
2019-06-15T15:10:29.172Z,5
2019-06-15T15:15:31.441Z,3
2019-06-15T15:20:33.906Z,6
2019-06-15T15:25:36.990Z,3
2019-06-15T15:30:38.809Z,4
2019-06-15T15:35:41.208Z,3
2019-06-15T15:40:43.665Z,3
2019-06-15T15:45:46.186Z,2
2019-06-15T15:50:48.530Z,3
2019-06-15T15:55:51.023Z,5
2019-06-15T16:00:53.409Z,3
2019-06-15T16:05:56.154Z,6
2019-06-15T16:10:58.396Z,2
2019-06-15T16:16:00.753Z,3
2019-06-15T16:21:03.166Z,2
2019-06-15T16:26:05.635Z,3
2019-06-15T16:31:13.072Z,3
2019-06-15T16:36:10.535Z,3
2019-06-15T16:41:12.947Z,4
2019-06-15T16:46:17.156Z,5
2019-06-15T16:51:17.960Z,4
2019-06-15T16:56:20.288Z,4
2019-06-15T17:01:22.712Z,4
2019-06-15T17:06:26.830Z,4
2019-06-15T17:11:27.626Z,4
2019-06-15T17:16:30.136Z,3
2019-06-15T17:21:32.505Z,3
2019-06-15T17:26:36.460Z,4
2019-06-15T17:31:37.639Z,3
2019-06-15T17:36:39.808Z,2
2019-06-15T17:41:42.270Z,3
2019-06-15T17:46:46.350Z,2
2019-06-15T17:51:47.141Z,3
2019-06-15T17:56:49.570Z,3
2019-06-15T18:01:52.013Z,2
2019-06-15T18:06:56.737Z,3
2019-06-15T18:11:57.178Z,4
2019-06-15T18:16:59.430Z,2
2019-06-15T18:22:01.805Z,3
2019-06-15T18:27:06.965Z,2
2019-06-15T18:32:06.661Z,3
2019-06-15T18:37:09.160Z,2
2019-06-15T18:42:11.539Z,2
2019-06-15T18:47:16.294Z,7
2019-06-15T18:52:17.044Z,2
2019-06-15T18:57:18.865Z,3
2019-06-15T19:02:21.367Z,3
2019-06-15T19:07:23.768Z,2
2019-06-15T19:12:26.464Z,3
2019-06-15T19:17:28.632Z,3
2019-06-15T19:22:31.147Z,3
2019-06-15T19:27:33.501Z,2
2019-06-15T19:32:36.776Z,2
2019-06-15T19:37:38.600Z,2
2019-06-15T19:42:40.833Z,3
2019-06-15T19:47:43.326Z,1
2019-06-15T19:52:46.184Z,2
2019-06-15T19:57:48.237Z,3
2019-06-15T20:02:50.598Z,3
2019-06-15T20:07:53.064Z,1
2019-06-15T20:12:56.198Z,2
2019-06-15T20:17:57.930Z,5
2019-06-15T20:23:00.374Z,2
2019-06-15T20:28:02.831Z,6
2019-06-15T20:33:07.517Z,3
2019-06-15T20:38:07.996Z,4
2019-06-15T20:43:10.167Z,2
2019-06-15T20:48:12.603Z,2
2019-06-15T20:53:16.979Z,2
2019-06-15T20:58:17.555Z,3
2019-06-15T21:03:19.929Z,2
2019-06-15T21:08:22.542Z,2
2019-06-15T21:13:26.348Z,2
2019-06-15T21:18:27.230Z,2
2019-06-15T21:23:29.674Z,3
2019-06-15T21:28:32.276Z,1
2019-06-15T21:33:36.029Z,2
2019-06-15T21:38:37.017Z,4
2019-06-15T21:43:39.475Z,2
2019-06-15T21:48:41.911Z,2
2019-06-15T21:53:46.658Z,3
2019-06-15T21:58:46.764Z,2
2019-06-15T22:03:49.208Z,3
2019-06-15T22:08:51.657Z,3
2019-06-15T22:13:54.095Z,3
2019-06-15T22:18:56.531Z,4
2019-06-15T22:23:58.992Z,3
2019-06-15T22:29:01.432Z,5
2019-06-15T22:34:06.410Z,3
2019-06-15T22:39:06.589Z,3
2019-06-15T22:44:08.747Z,4
2019-06-15T22:49:11.176Z,4
2019-06-15T22:54:13.611Z,4
2019-06-15T22:59:16.856Z,3
2019-06-15T23:04:18.612Z,4
2019-06-15T23:09:21.049Z,4
2019-06-15T23:14:23.392Z,4
2019-06-15T23:19:26.251Z,3
2019-06-15T23:24:28.278Z,4
2019-06-15T23:29:31.173Z,3
2019-06-15T23:34:33.241Z,4
2019-06-15T23:39:36.103Z,3
2019-06-15T23:44:38.021Z,4
2019-06-15T23:49:40.471Z,3
2019-06-15T23:54:42.951Z,3
2019-06-15T23:59:46.512Z,5
